Time;durP1;ratioP1;P1;durP2;ratioP2;P2;SDS_P1;SDS_P2;PMS_P1;PMS_P2;Temp;Humidity;BMP_temperature;BMP_pressure;BME280_temperature;BME280_humidity;BME280_pressure;Samples;Min_cycle;Max_cycle;Signal;HPM_P1;HPM_P2
2022/04/18 00:00:57;;;;;;;11.10;7.90;;;;;;;3.95;100.00;96693.81;5103215;28;20040;-52
2022/04/18 00:03:26;;;;;;;11.25;8.43;;;;;;;3.94;100.00;96697.38;5107849;28;20450;-55
2022/04/18 00:05:55;;;;;;;11.45;8.50;;;;;;;4.32;100.00;96697.50;5110340;27;20569;-54
2022/04/18 00:08:24;;;;;;;8.73;7.18;;;;;;;4.15;100.00;96700.38;5102790;28;20071;-54
2022/04/18 00:10:52;;;;;;;10.05;7.65;;;;;;;3.90;100.00;96695.91;5106650;28;20051;-54
2022/04/18 00:13:20;;;;;;;7.57;6.72;;;;;;;3.76;100.00;96688.97;5100219;28;20130;-55
2022/04/18 00:15:49;;;;;;;10.40;7.25;;;;;;;3.75;100.00;96698.56;5105953;28;20529;-52
2022/04/18 00:18:17;;;;;;;10.82;7.25;;;;;;;3.68;100.00;96696.41;5100881;28;20134;-54
2022/04/18 00:20:45;;;;;;;9.75;6.63;;;;;;;3.31;100.00;96693.50;5107385;28;20106;-52
2022/04/18 00:23:15;;;;;;;9.48;6.85;;;;;;;3.43;100.00;96697.94;5105442;28;20071;-51
2022/04/18 00:25:43;;;;;;;9.00;7.63;;;;;;;3.66;100.00;96691.31;5101787;28;20067;-54
2022/04/18 00:28:12;;;;;;;11.23;7.80;;;;;;;3.76;100.00;96681.97;5101295;28;20588;-49
2022/04/18 00:30:41;;;;;;;8.57;7.68;;;;;;;3.84;100.00;96680.63;5103647;28;20544;-56
2022/04/18 00:33:09;;;;;;;10.57;7.70;;;;;;;3.71;100.00;96672.75;5104264;28;20465;-56
2022/04/18 00:35:38;;;;;;;10.70;8.65;;;;;;;3.78;100.00;96681.84;5103983;28;20111;-51
2022/04/18 00:38:06;;;;;;;10.57;8.10;;;;;;;3.81;100.00;96672.06;5106318;28;20062;-51
2022/04/18 00:40:36;;;;;;;11.65;8.98;;;;;;;3.74;100.00;96675.16;5104061;28;20059;-50
2022/04/18 00:43:05;;;;;;;10.80;8.48;;;;;;;3.92;100.00;96674.00;5108481;28;20090;-53
2022/04/18 00:45:33;;;;;;;10.38;8.50;;;;;;;3.99;100.00;96664.84;5103479;28;20067;-55
2022/04/18 00:48:02;;;;;;;11.57;8.10;;;;;;;3.94;100.00;96674.72;5088736;28;20522;-53
2022/04/18 00:50:33;;;;;;;12.27;9.35;;;;;;;4.00;100.00;96669.13;5088984;28;20063;-49
2022/04/18 00:53:03;;;;;;;12.57;9.27;;;;;;;4.20;100.00;96660.00;5082010;28;20066;-47
2022/04/18 00:55:33;;;;;;;10.60;8.52;;;;;;;4.11;100.00;96659.75;5085934;28;20063;-49
2022/04/18 00:58:03;;;;;;;9.88;8.85;;;;;;;4.22;100.00;96658.09;5109223;28;20079;-49
2022/04/18 01:00:31;;;;;;;12.40;8.98;;;;;;;4.20;100.00;96651.34;5106790;28;20071;-50
2022/04/18 01:02:59;;;;;;;11.68;9.20;;;;;;;4.14;100.00;96657.78;5105840;28;20066;-51
2022/04/18 01:05:28;;;;;;;14.20;8.90;;;;;;;4.15;100.00;96650.78;5107241;28;20082;-51
2022/04/18 01:07:56;;;;;;;11.10;8.68;;;;;;;3.99;100.00;96650.94;5105831;28;20067;-53
2022/04/18 01:10:24;;;;;;;10.70;8.88;;;;;;;4.09;100.00;96641.56;5104554;28;20086;-49
2022/04/18 01:12:53;;;;;;;10.98;9.35;;;;;;;4.17;100.00;96646.31;5101574;28;20083;-56
2022/04/18 01:15:22;;;;;;;12.73;9.68;;;;;;;4.20;100.00;96640.91;5109546;27;20067;-48
2022/04/18 01:17:51;;;;;;;11.93;9.25;;;;;;;4.22;100.00;96641.63;5107420;28;20067;-57
2022/04/18 01:20:20;;;;;;;11.82;9.27;;;;;;;4.10;100.00;96643.28;5106415;27;20074;-53
2022/04/18 01:22:51;;;;;;;13.02;9.52;;;;;;;4.23;100.00;96635.44;5109592;27;20070;-56
2022/04/18 01:30:57;;;;;;;14.05;8.50;;;;;;;3.93;100.00;96631.31;5108267;27;20067;-56
2022/04/18 01:33:26;;;;;;;9.23;8.30;;;;;;;3.61;100.00;96629.94;5113651;27;20076;-54
2022/04/18 01:35:55;;;;;;;10.43;7.90;;;;;;;3.50;100.00;96630.63;5106546;27;20063;-57
2022/04/18 01:38:24;;;;;;;10.10;8.20;;;;;;;3.23;100.00;96627.97;5112074;27;20067;-53
2022/04/18 01:40:52;;;;;;;11.93;8.10;;;;;;;2.96;100.00;96628.75;5104915;27;20059;-51
2022/04/18 01:43:21;;;;;;;13.43;8.40;;;;;;;3.19;100.00;96627.31;5106120;27;20667;-49
2022/04/18 01:45:50;;;;;;;9.00;7.55;;;;;;;3.04;100.00;96626.50;5105881;27;20480;-55
2022/04/18 01:48:18;;;;;;;8.98;8.05;;;;;;;3.33;100.00;96629.91;5105150;27;20091;-49
2022/04/18 01:50:46;;;;;;;10.20;8.15;;;;;;;3.35;100.00;96614.19;5110246;27;20078;-57
2022/04/18 01:53:14;;;;;;;9.80;8.52;;;;;;;3.44;100.00;96623.16;5102305;27;20075;-51
2022/04/18 01:55:44;;;;;;;10.90;8.63;;;;;;;3.54;100.00;96617.31;5108713;27;20078;-53
2022/04/18 01:58:13;;;;;;;10.50;8.33;;;;;;;3.56;100.00;96609.38;5107022;27;20257;-47
2022/04/18 02:00:41;;;;;;;9.85;8.75;;;;;;;3.49;100.00;96608.94;5115496;27;20496;-53
2022/04/18 02:03:10;;;;;;;11.05;8.75;;;;;;;3.51;100.00;96611.41;5110131;27;20066;-51
2022/04/18 02:05:39;;;;;;;12.77;8.57;;;;;;;3.62;100.00;96603.78;5110186;27;20718;-53
2022/04/18 02:08:07;;;;;;;11.30;8.30;;;;;;;3.53;100.00;96599.13;5107308;28;20404;-50
2022/04/18 02:10:36;;;;;;;11.07;8.25;;;;;;;3.65;100.00;96602.72;5108258;27;20083;-53
2022/04/18 02:13:06;;;;;;;9.40;8.50;;;;;;;3.37;100.00;96607.09;5105264;27;20075;-52
2022/04/18 02:15:34;;;;;;;10.63;8.32;;;;;;;3.59;100.00;96603.97;5105912;27;20046;-46
2022/04/18 02:18:03;;;;;;;10.18;8.00;;;;;;;3.63;100.00;96602.00;5107416;27;20465;-46
2022/04/18 02:20:31;;;;;;;10.65;8.68;;;;;;;3.76;100.00;96600.28;5105572;27;20566;-46
2022/04/18 02:22:59;;;;;;;11.35;8.57;;;;;;;3.76;100.00;96587.22;5105492;27;20055;-53
2022/04/18 02:25:27;;;;;;;11.23;8.38;;;;;;;3.72;100.00;96598.81;5104340;27;20083;-54
2022/04/18 02:27:56;;;;;;;9.95;8.15;;;;;;;3.54;100.00;96598.19;5109955;27;20066;-54
2022/04/18 02:30:25;;;;;;;8.63;7.75;;;;;;;3.64;100.00;96593.22;5102174;27;20070;-53
2022/04/18 02:32:54;;;;;;;9.13;8.20;;;;;;;3.61;100.00;96588.22;5111362;27;20073;-56
2022/04/18 02:35:23;;;;;;;10.43;8.18;;;;;;;3.39;100.00;96588.75;5101494;27;20067;-57
2022/04/18 02:37:52;;;;;;;10.77;8.57;;;;;;;3.19;100.00;96580.41;5082744;28;20059;-49
2022/04/18 02:40:21;;;;;;;10.43;8.25;;;;;;;3.25;100.00;96580.03;5101137;27;20101;-51
2022/04/18 02:42:49;;;;;;;11.45;8.73;;;;;;;3.19;100.00;96576.97;5106315;27;20087;-49
2022/04/18 02:45:19;;;;;;;9.88;8.77;;;;;;;3.43;100.00;96570.22;5103623;28;20070;-49
2022/04/18 02:47:49;;;;;;;9.70;8.30;;;;;;;3.53;100.00;96571.28;5106805;27;20464;-53
2022/04/18 02:50:17;;;;;;;10.32;8.63;;;;;;;3.68;100.00;96568.63;5111336;27;20070;-51
2022/04/18 02:52:45;;;;;;;10.27;8.13;;;;;;;3.64;100.00;96569.75;5106474;28;20082;-53
2022/04/18 02:55:13;;;;;;;9.27;8.30;;;;;;;3.32;100.00;96564.84;5104984;27;20079;-55
2022/04/18 02:57:42;;;;;;;10.95;8.30;;;;;;;3.27;100.00;96565.16;5106756;27;20123;-52
2022/04/18 03:00:11;;;;;;;9.43;8.32;;;;;;;3.13;100.00;96565.16;5105337;27;20059;-57
2022/04/18 03:02:40;;;;;;;9.30;8.07;;;;;;;2.66;100.00;96568.94;5097902;27;20059;-58
2022/04/18 03:05:11;;;;;;;11.35;9.20;;;;;;;2.28;100.00;96573.88;5101697;27;20497;-52
2022/04/18 03:07:40;;;;;;;9.57;8.57;;;;;;;2.37;100.00;96571.56;5105157;28;20071;-55
2022/04/18 03:10:09;;;;;;;12.52;9.18;;;;;;;2.56;100.00;96571.28;5104915;28;20476;-51
2022/04/18 03:12:37;;;;;;;10.65;8.40;;;;;;;2.78;100.00;96568.19;5102457;28;20078;-49
2022/04/18 03:15:08;;;;;;;11.27;8.90;;;;;;;2.76;100.00;96566.63;5102859;27;20074;-57
2022/04/18 03:17:36;;;;;;;11.10;9.00;;;;;;;2.56;100.00;96555.66;5104421;27;20055;-53
2022/04/18 03:20:05;;;;;;;11.40;9.13;;;;;;;2.40;100.00;96560.09;5104175;27;20070;-58
2022/04/18 03:22:35;;;;;;;11.27;9.02;;;;;;;2.55;100.00;96556.59;5107153;27;20062;-50
2022/04/18 03:25:03;;;;;;;10.55;8.90;;;;;;;2.79;100.00;96559.47;5100599;27;20087;-57
2022/04/18 03:27:31;;;;;;;10.55;8.75;;;;;;;2.92;100.00;96551.72;5101346;27;20067;-53
2022/04/18 03:30:00;;;;;;;12.23;9.13;;;;;;;3.02;100.00;96545.00;5107134;27;20067;-55
2022/04/18 03:32:28;;;;;;;10.73;8.50;;;;;;;3.08;100.00;96543.78;5103293;27;20063;-56
2022/04/18 03:34:56;;;;;;;10.95;9.05;;;;;;;2.84;100.00;96538.34;5103400;27;20071;-52
2022/04/18 03:40:12;;;;;;;9.80;8.80;;;;;;;2.74;100.00;96526.81;5097136;27;20063;-51
2022/04/18 03:42:41;;;;;;;10.85;8.80;;;;;;;2.91;100.00;96533.59;5102042;28;20452;-50
2022/04/18 03:45:09;;;;;;;9.85;8.77;;;;;;;2.96;100.00;96531.50;5102652;27;20070;-50
2022/04/18 03:47:37;;;;;;;12.05;9.07;;;;;;;2.61;100.00;96537.13;5106084;27;20059;-50
2022/04/18 03:50:07;;;;;;;11.48;9.40;;;;;;;2.55;100.00;96538.38;5109401;27;20055;-55
2022/04/18 03:52:35;;;;;;;10.20;8.90;;;;;;;2.94;100.00;96528.19;5101573;28;20071;-53
2022/04/18 03:55:07;;;;;;;11.77;9.27;;;;;;;2.81;100.00;96522.91;5101831;27;20067;-49
2022/04/18 03:57:36;;;;;;;9.77;8.77;;;;;;;2.41;100.00;96534.91;5101235;28;21535;-51
2022/04/18 04:00:06;;;;;;;11.68;9.05;;;;;;;2.31;100.00;96524.25;5106200;27;20067;-55
2022/04/18 04:02:34;;;;;;;15.30;8.80;;;;;;;2.38;100.00;96523.78;5097652;28;20063;-51
2022/04/18 04:05:03;;;;;;;13.88;9.50;;;;;;;2.38;100.00;96523.78;5094983;28;20099;-53
2022/04/18 04:07:31;;;;;;;11.85;9.20;;;;;;;2.35;100.00;96531.75;5098240;28;20056;-56
2022/04/18 04:09:59;;;;;;;10.82;8.95;;;;;;;2.82;100.00;96520.22;5096929;28;20094;-48
2022/04/18 04:12:28;;;;;;;10.88;9.32;;;;;;;2.83;100.00;96526.25;5107185;28;20498;-51
2022/04/18 04:14:57;;;;;;;11.00;9.85;;;;;;;2.76;100.00;96524.97;5101116;28;20064;-51
2022/04/18 04:17:29;;;;;;;10.85;9.30;;;;;;;2.26;100.00;96531.47;5104390;28;20568;-46
2022/04/18 04:20:17;;;;;;;11.45;9.45;;;;;;;2.29;100.00;96532.13;5097626;28;20758;-51
2022/04/18 04:22:48;;;;;;;10.40;8.77;;;;;;;2.40;100.00;96538.44;5099145;28;20058;-51
2022/04/18 04:25:16;;;;;;;11.38;9.27;;;;;;;2.48;100.00;96534.47;5100466;28;20079;-52
2022/04/18 04:27:45;;;;;;;14.32;9.35;;;;;;;2.55;100.00;96534.94;5101897;28;20572;-48
2022/04/18 04:30:15;;;;;;;11.43;9.68;;;;;;;2.43;100.00;96531.28;5102173;28;20067;-54
2022/04/18 04:32:43;;;;;;;10.10;8.75;;;;;;;2.46;100.00;96528.50;5096998;28;20436;-51
2022/04/18 04:35:11;;;;;;;12.57;9.27;;;;;;;2.38;100.00;96523.78;5101704;28;20076;-51
2022/04/18 04:37:40;;;;;;;10.88;9.15;;;;;;;2.57;100.00;96523.47;5097139;28;20082;-50
2022/04/18 04:40:09;;;;;;;11.32;8.88;;;;;;;2.68;100.00;96517.59;5106518;28;20086;-47
2022/04/18 04:42:38;;;;;;;10.85;8.88;;;;;;;2.90;100.00;96517.13;5099772;28;20467;-56
2022/04/18 04:45:06;;;;;;;10.10;9.02;;;;;;;2.92;100.00;96517.00;5103419;28;20067;-54
2022/04/18 04:47:36;;;;;;;11.68;9.32;;;;;;;3.02;100.00;96512.91;5095815;28;21918;-51
2022/04/18 04:50:05;;;;;;;12.10;9.88;;;;;;;2.95;100.00;96517.66;5106262;27;20074;-51
2022/04/18 04:52:33;;;;;;;11.82;9.05;;;;;;;2.89;100.00;96518.06;5101865;27;20058;-53
2022/04/18 04:55:01;;;;;;;11.57;9.32;;;;;;;2.99;100.00;96511.31;5097305;27;20476;-47
2022/04/18 04:57:29;;;;;;;10.80;9.75;;;;;;;3.24;100.00;96515.00;5103788;27;20067;-48
2022/04/18 04:59:58;;;;;;;11.70;10.50;;;;;;;4.14;100.00;96509.03;5109105;27;20090;-47
2022/04/18 05:02:26;;;;;;;11.32;10.23;;;;;;;4.91;100.00;96512.38;5108879;27;20070;-52
2022/04/18 05:04:56;;;;;;;11.40;10.27;;;;;;;4.83;100.00;96519.09;5095784;27;20052;-53
2022/04/18 05:07:24;;;;;;;9.57;8.60;;;;;;;4.80;100.00;96512.31;5105048;27;20105;-49
2022/04/18 05:09:52;;;;;;;10.27;9.27;;;;;;;4.97;100.00;96516.34;5101048;27;20068;-50
2022/04/18 05:12:21;;;;;;;9.63;8.40;;;;;;;5.47;100.00;96511.88;5092509;28;20647;-50
2022/04/18 05:14:49;;;;;;;8.80;8.00;;;;;;;6.33;100.00;96515.97;5106180;27;20078;-53
2022/04/18 05:17:18;;;;;;;9.63;8.52;;;;;;;6.96;100.00;96511.13;5104059;27;20059;-49
2022/04/18 05:19:46;;;;;;;8.98;8.05;;;;;;;6.76;100.00;96520.53;5103054;27;20513;-52
2022/04/18 05:22:16;;;;;;;8.68;7.10;;;;;;;6.54;100.00;96522.19;5109374;27;20071;-51
2022/04/18 05:24:44;;;;;;;6.97;6.10;;;;;;;6.87;100.00;96512.66;5087446;28;20072;-53
2022/04/18 05:27:15;;;;;;;9.02;6.68;;;;;;;6.39;100.00;96518.13;5080717;28;20075;-52
2022/04/18 05:29:43;;;;;;;;;;;;;;;6.38;100.00;96517.28;5093933;28;20059;-50
2022/04/18 05:32:11;;;;;;;7.43;6.72;;;;;;;6.47;100.00;96520.16;5106176;28;19958;-49
2022/04/18 05:34:40;;;;;;;7.63;6.80;;;;;;;6.20;100.00;96520.50;5103382;27;20068;-55
2022/04/18 05:37:08;;;;;;;9.40;6.88;;;;;;;6.63;100.00;96523.25;5100620;27;20059;-54
2022/04/18 05:39:38;;;;;;;8.40;7.18;;;;;;;6.71;100.00;96523.53;5105180;27;20101;-55
2022/04/18 05:42:07;;;;;;;9.82;7.43;;;;;;;6.80;100.00;96527.19;5111098;27;20067;-56
2022/04/18 05:44:36;;;;;;;10.20;7.77;;;;;;;6.88;100.00;96524.78;5106811;27;20456;-54
2022/04/18 05:47:04;;;;;;;8.68;7.45;;;;;;;6.98;100.00;96523.13;5103831;28;20071;-56
2022/04/18 05:49:33;;;;;;;13.05;8.73;;;;;;;6.92;100.00;96522.78;5102174;27;20078;-54
2022/04/18 05:52:01;;;;;;;9.93;8.20;;;;;;;6.81;100.00;96521.84;5109778;27;20449;-53
2022/04/18 05:54:30;;;;;;;8.13;7.30;;;;;;;6.51;100.00;96529.47;5105433;27;20063;-50
2022/04/18 05:57:02;;;;;;;9.10;7.40;;;;;;;6.63;100.00;96531.13;5106381;27;20066;-54
2022/04/18 05:59:31;;;;;;;9.52;7.13;;;;;;;6.60;100.00;96526.13;5109523;27;20075;-50
2022/04/18 06:01:59;;;;;;;10.63;7.32;;;;;;;6.79;100.00;96528.16;5105546;27;20505;-54
2022/04/18 06:04:27;;;;;;;8.65;7.15;;;;;;;6.94;100.00;96523.50;5104618;27;20074;-55
2022/04/18 06:06:56;;;;;;;7.20;6.43;;;;;;;6.97;100.00;96518.84;5109313;27;20510;-56
2022/04/18 06:09:24;;;;;;;11.50;6.80;;;;;;;7.06;100.00;96533.84;5111797;27;20063;-56
2022/04/18 06:11:53;;;;;;;7.97;6.50;;;;;;;7.64;100.00;96525.75;5105743;27;20117;-51
2022/04/18 06:14:23;;;;;;;7.55;6.25;;;;;;;7.15;100.00;96527.03;5106122;27;20067;-51
2022/04/18 06:16:51;;;;;;;9.35;6.88;;;;;;;6.81;100.00;96529.72;5077023;28;20062;-54
2022/04/18 06:19:19;;;;;;;7.57;6.38;;;;;;;7.17;100.00;96524.31;5102506;27;20189;-54
2022/04/18 06:21:48;;;;;;;8.43;6.70;;;;;;;7.12;100.00;96524.66;5100993;27;20071;-52
2022/04/18 06:24:18;;;;;;;8.23;6.85;;;;;;;7.80;100.00;96525.31;5089927;28;20091;-58
2022/04/18 06:26:46;;;;;;;9.50;7.10;;;;;;;7.11;100.00;96523.81;5103883;27;20067;-51
2022/04/18 06:29:14;;;;;;;9.10;6.90;;;;;;;7.26;100.00;96523.56;5103452;27;20074;-50
2022/04/18 06:31:44;;;;;;;8.07;6.93;;;;;;;7.43;100.00;96520.41;5102309;27;20063;-54
2022/04/18 06:34:12;;;;;;;8.43;7.03;;;;;;;7.54;100.00;96519.56;5107736;27;20074;-52
2022/04/18 06:36:41;;;;;;;10.07;6.80;;;;;;;8.09;100.00;96515.03;5101575;27;20063;-51
2022/04/18 06:39:09;;;;;;;7.28;6.30;;;;;;;7.70;100.00;96519.97;5100097;27;20453;-51
2022/04/18 06:41:37;;;;;;;7.68;6.85;;;;;;;7.50;100.00;96510.25;5104117;27;20063;-55
2022/04/18 06:44:06;;;;;;;7.95;6.28;;;;;;;7.92;100.00;96513.81;5101806;27;20477;-55
2022/04/18 06:46:34;;;;;;;8.40;6.53;;;;;;;7.73;100.00;96516.25;5103288;27;20063;-53
2022/04/18 06:49:04;;;;;;;7.18;6.38;;;;;;;8.19;100.00;96502.81;5112826;27;20632;-53
2022/04/18 06:51:32;;;;;;;6.68;5.97;;;;;;;8.15;100.00;96501.38;5112894;27;20150;-52
2022/04/18 06:54:00;;;;;;;7.53;6.13;;;;;;;8.33;100.00;96512.97;5118676;27;20548;-55
2022/04/18 06:59:14;;;;;;;7.63;6.82;;;;;;;8.79;100.00;96513.50;5104352;27;20070;-56
2022/04/18 07:01:43;;;;;;;9.00;6.65;;;;;;;8.72;100.00;96509.75;5105989;27;20067;-52
2022/04/18 07:04:13;;;;;;;7.20;6.00;;;;;;;8.74;100.00;96513.06;5103151;27;20059;-54
2022/04/18 07:06:42;;;;;;;8.02;6.30;;;;;;;9.40;100.00;96508.16;5103967;27;20054;-50
2022/04/18 07:09:10;;;;;;;7.38;5.80;;;;;;;8.90;100.00;96512.56;5103201;27;20080;-55
2022/04/18 07:11:39;;;;;;;7.18;5.75;;;;;;;8.87;100.00;96516.28;5105225;27;20078;-51
2022/04/18 07:14:08;;;;;;;7.72;6.10;;;;;;;8.96;100.00;96512.88;5104559;27;20067;-57
2022/04/18 07:16:36;;;;;;;7.07;5.97;;;;;;;9.06;100.00;96512.91;5106745;27;20055;-59
2022/04/18 07:19:04;;;;;;;7.55;5.82;;;;;;;9.70;100.00;96509.00;5112355;27;20075;-56
2022/04/18 07:21:35;;;;;;;7.63;5.97;;;;;;;9.81;100.00;96500.16;5104945;27;20083;-53
2022/04/18 07:24:04;;;;;;;7.65;5.93;;;;;;;9.79;100.00;96502.06;5104892;27;20097;-56
2022/04/18 07:26:32;;;;;;;7.93;5.60;;;;;;;9.37;95.33;96510.22;5100167;27;20532;-54
2022/04/18 07:29:00;;;;;;;7.90;5.80;;;;;;;9.59;96.50;96509.97;5104546;27;20078;-57
2022/04/18 07:31:28;;;;;;;7.50;5.60;;;;;;;9.89;92.57;96511.63;5110351;27;20070;-53
2022/04/18 07:33:57;;;;;;;6.32;5.63;;;;;;;10.06;90.80;96514.56;5105498;27;20067;-55
2022/04/18 07:36:25;;;;;;;6.47;5.57;;;;;;;10.35;88.31;96506.63;5102637;28;20083;-58
2022/04/18 07:38:55;;;;;;;8.07;5.60;;;;;;;10.86;83.99;96505.34;5101496;28;20067;-56
2022/04/18 07:41:26;;;;;;;9.35;5.85;;;;;;;10.99;75.70;96505.88;5098585;28;20518;-56
2022/04/18 07:43:55;;;;;;;6.30;5.28;;;;;;;10.61;75.48;96510.31;5085680;28;20063;-56
2022/04/18 07:46:24;;;;;;;6.23;5.43;;;;;;;10.90;78.85;96504.91;5093858;28;20067;-53
2022/04/18 07:48:53;;;;;;;6.45;5.20;;;;;;;10.58;76.27;96509.75;5099947;28;20066;-55
2022/04/18 07:51:35;;;;;;;6.28;5.20;;;;;;;10.56;69.53;96511.69;5104561;27;20087;-54
2022/04/18 07:54:07;;;;;;;5.53;4.43;;;;;;;10.89;65.23;96508.53;5102991;28;20075;-56
2022/04/18 07:56:36;;;;;;;5.38;4.88;;;;;;;10.52;62.68;96515.59;5100843;28;20079;-54
2022/04/18 07:59:05;;;;;;;6.00;4.55;;;;;;;10.82;62.49;96504.00;5103822;27;20066;-59
2022/04/18 08:01:33;;;;;;;6.25;5.00;;;;;;;11.51;62.41;96505.28;5104252;28;20098;-56
2022/04/18 08:04:02;;;;;;;6.10;4.50;;;;;;;11.19;54.31;96506.59;5107502;27;20078;-53
2022/04/18 08:06:31;;;;;;;5.70;4.65;;;;;;;11.00;56.80;96506.69;5103566;28;20079;-56
2022/04/18 08:09:00;;;;;;;4.90;4.35;;;;;;;11.05;57.87;96499.19;5101433;27;20078;-54
2022/04/18 08:11:30;;;;;;;7.32;4.60;;;;;;;11.54;55.76;96508.47;5101567;28;20078;-55
2022/04/18 08:13:58;;;;;;;5.45;4.28;;;;;;;11.30;53.80;96502.94;5105049;28;20072;-53
2022/04/18 08:16:27;;;;;;;5.88;4.60;;;;;;;11.56;53.53;96506.53;5103594;28;20074;-53
2022/04/18 08:18:56;;;;;;;5.25;4.40;;;;;;;11.49;50.74;96508.06;5103043;28;20445;-56
2022/04/18 08:21:24;;;;;;;7.22;3.97;;;;;;;11.69;52.28;96513.22;5103977;28;20088;-57
2022/04/18 08:23:53;;;;;;;5.55;4.25;;;;;;;12.27;52.34;96505.66;5104619;28;20090;-51
2022/04/18 08:26:29;;;;;;;5.93;4.30;;;;;;;12.13;49.64;96511.50;5102916;28;20067;-57
2022/04/18 08:28:57;;;;;;;5.18;4.38;;;;;;;12.41;49.73;96506.94;5104648;27;20448;-56
2022/04/18 08:31:26;;;;;;;7.55;4.75;;;;;;;12.48;50.26;96513.25;5103948;28;20071;-56
2022/04/18 08:33:54;;;;;;;6.45;4.28;;;;;;;12.51;50.33;96509.47;5096869;28;20066;-59
2022/04/18 08:36:22;;;;;;;4.47;3.60;;;;;;;11.97;49.08;96512.19;5089654;28;20079;-53
2022/04/18 08:38:51;;;;;;;5.35;3.80;;;;;;;11.83;49.07;96517.97;5101127;28;20509;-56
2022/04/18 08:41:23;;;;;;;4.47;3.78;;;;;;;12.10;49.29;96515.28;5102615;28;20534;-51
2022/04/18 08:43:53;;;;;;;4.43;3.65;;;;;;;12.22;47.82;96504.50;5103860;27;20063;-58
2022/04/18 08:46:21;;;;;;;6.57;4.10;;;;;;;12.69;48.94;96515.53;5101833;28;20082;-56
2022/04/18 08:54:26;;;;;;;6.55;4.45;;;;;;;12.58;49.72;96511.34;5102667;27;20106;-56
2022/04/18 08:56:54;;;;;;;5.38;3.95;;;;;;;12.58;47.81;96513.16;5107837;27;20087;-55
2022/04/18 08:59:24;;;;;;;5.32;3.60;;;;;;;12.45;48.70;96499.50;5102029;28;20744;-54
2022/04/18 09:01:53;;;;;;;4.40;3.67;;;;;;;12.36;48.14;96498.66;5103866;27;20064;-58
2022/04/18 09:04:21;;;;;;;5.57;3.80;;;;;;;12.65;47.60;96502.78;5109622;27;20059;-50
2022/04/18 09:06:49;;;;;;;5.50;4.00;;;;;;;12.85;46.59;96500.75;5105197;27;20097;-51
2022/04/18 09:09:26;;;;;;;7.32;4.10;;;;;;;12.82;47.71;96504.53;5102619;27;20075;-55
2022/04/18 09:11:54;;;;;;;7.03;3.88;;;;;;;12.68;47.52;96505.94;5098026;28;20415;-58
2022/04/18 09:14:26;;;;;;;4.90;4.13;;;;;;;12.49;47.06;96503.50;5100374;28;20070;-56
2022/04/18 09:16:55;;;;;;;5.63;3.80;;;;;;;12.55;46.96;96495.78;5099878;27;20044;-58
2022/04/18 09:19:23;;;;;;;4.93;3.83;;;;;;;12.89;46.02;96492.31;5107201;27;20731;-56
2022/04/18 09:21:59;;;;;;;5.68;4.10;;;;;;;13.43;46.25;96492.91;5098183;28;20477;-56
2022/04/18 09:24:35;;;;;;;5.57;3.75;;;;;;;13.07;45.84;96490.44;5100877;27;20044;-51
2022/04/18 09:27:08;;;;;;;5.80;4.32;;;;;;;12.37;45.12;96491.53;5098206;28;20076;-53
2022/04/18 09:29:39;;;;;;;4.15;3.75;;;;;;;12.77;44.50;96491.78;5098158;27;20060;-54
2022/04/18 09:32:09;;;;;;;5.03;3.88;;;;;;;13.20;44.09;96484.69;5100668;27;20059;-55
2022/04/18 09:34:37;;;;;;;6.32;4.18;;;;;;;13.20;44.92;96478.56;5098563;27;20066;-54
2022/04/18 09:37:13;;;;;;;5.50;4.05;;;;;;;12.52;43.87;96485.50;5100668;27;20067;-54
2022/04/18 09:39:43;;;;;;;4.40;3.45;;;;;;;12.73;42.43;96486.94;5107249;27;20067;-53
2022/04/18 09:42:12;;;;;;;4.55;3.58;;;;;;;13.23;42.43;96479.06;5108818;27;20454;-53
2022/04/18 09:44:42;;;;;;;4.73;3.60;;;;;;;12.81;41.31;96484.34;5086396;28;20036;-54
2022/04/18 09:47:15;;;;;;;3.67;3.30;;;;;;;13.37;41.23;96468.88;5102056;27;20075;-56
2022/04/18 09:49:44;;;;;;;5.72;3.10;;;;;;;13.01;40.78;96477.84;5100314;27;20504;-55
2022/04/18 09:52:15;;;;;;;4.05;3.40;;;;;;;13.14;38.18;96477.38;5107112;27;20478;-57
2022/04/18 09:54:48;;;;;;;5.30;3.50;;;;;;;12.96;39.88;96472.19;5103670;27;20100;-55
2022/04/18 09:57:21;;;;;;;6.10;3.33;;;;;;;13.47;39.84;96474.88;5102777;27;20079;-53
2022/04/18 09:59:52;;;;;;;4.43;3.90;;;;;;;12.95;41.65;96470.53;5085341;28;20467;-54
2022/04/18 10:02:21;;;;;;;4.93;3.50;;;;;;;13.15;40.44;96467.63;5102496;27;20082;-54
2022/04/18 10:04:51;;;;;;;4.47;2.95;;;;;;;13.21;40.18;96475.78;5099897;27;20063;-54
2022/04/18 10:07:20;;;;;;;4.72;3.03;;;;;;;13.22;39.60;96472.13;5103402;27;20078;-59
2022/04/18 10:09:48;;;;;;;4.00;3.30;;;;;;;13.55;39.57;96464.28;5105359;27;20485;-59
2022/04/18 10:12:16;;;;;;;4.55;3.60;;;;;;;13.57;39.82;96469.44;5103656;27;20466;-51
2022/04/18 10:14:45;;;;;;;5.55;3.58;;;;;;;13.56;40.52;96458.00;5098498;28;20342;-52
2022/04/18 10:17:17;;;;;;;3.58;3.22;;;;;;;13.48;39.49;96465.91;5104356;27;20075;-51
2022/04/18 10:20:04;;;;;;;4.00;3.55;;;;;;;13.51;40.44;96450.53;5099636;27;20059;-54
2022/04/18 10:22:59;;;;;;;4.85;3.50;;;;;;;13.56;40.27;96454.50;5110317;27;20075;-51
2022/04/18 10:25:36;;;;;;;5.07;3.85;;;;;;;13.56;40.75;96452.69;5102733;27;20484;-50
2022/04/18 10:28:09;;;;;;;4.97;3.67;;;;;;;13.90;40.53;96444.63;5103724;27;20067;-54
2022/04/18 10:30:41;;;;;;;4.28;3.65;;;;;;;13.72;41.12;96439.44;5102789;27;20036;-55
2022/04/18 10:33:13;;;;;;;5.07;4.00;;;;;;;13.57;40.45;96458.81;5101682;27;20087;-55
2022/04/18 10:35:53;;;;;;;4.40;3.67;;;;;;;14.38;38.92;96439.41;5106806;27;20093;-53
2022/04/18 10:38:24;;;;;;;4.63;3.72;;;;;;;14.36;38.44;96447.56;5098898;27;20071;-57
2022/04/18 10:41:14;;;;;;;3.88;3.20;;;;;;;13.88;38.88;96432.50;5106101;27;20514;-55
2022/04/18 10:44:01;;;;;;;12.18;8.10;;;;;;;13.41;39.43;96438.41;5105466;27;20036;-55
2022/04/18 10:46:29;;;;;;;5.20;3.70;;;;;;;13.88;39.30;96443.13;5104426;27;20082;-58
2022/04/18 10:49:00;;;;;;;4.47;3.70;;;;;;;14.29;39.08;96437.78;5100461;27;20075;-54
2022/04/18 10:51:30;;;;;;;4.32;3.15;;;;;;;13.78;39.04;96420.25;5103920;27;20071;-55
2022/04/18 10:54:11;;;;;;;4.33;3.40;;;;;;;14.39;38.31;96425.16;5100315;27;20086;-58
2022/04/18 10:56:54;;;;;;;4.45;3.28;;;;;;;13.98;37.18;96428.69;5100848;27;20078;-57
2022/04/18 10:59:24;;;;;;;3.90;3.50;;;;;;;13.97;38.00;96421.75;5101122;27;20083;-58
2022/04/18 11:01:53;;;;;;;4.93;3.33;;;;;;;14.13;38.40;96418.22;5102100;27;20067;-52
2022/04/18 11:04:26;;;;;;;3.60;3.22;;;;;;;13.79;37.47;96418.41;5101016;27;20070;-58
2022/04/18 11:07:01;;;;;;;3.83;3.20;;;;;;;14.48;36.38;96418.81;5103670;28;20055;-52
2022/04/18 11:09:31;;;;;;;3.58;3.28;;;;;;;14.17;36.36;96408.94;5100393;27;20067;-56
2022/04/18 11:12:02;;;;;;;4.40;3.30;;;;;;;14.85;37.11;96412.09;5101751;27;20457;-54
2022/04/18 11:14:31;;;;;;;3.50;3.20;;;;;;;14.13;36.22;96410.28;5098890;28;20068;-55
2022/04/18 11:17:01;;;;;;;4.13;3.53;;;;;;;13.95;36.98;96418.44;5104174;27;20070;-56
2022/04/18 11:19:32;;;;;;;3.60;3.00;;;;;;;14.33;36.08;96415.22;5100305;27;20064;-59
2022/04/18 11:22:20;;;;;;;3.47;2.80;;;;;;;14.16;35.30;96403.81;5098972;28;20079;-53
2022/04/18 11:25:00;;;;;;;4.00;3.20;;;;;;;14.17;36.46;96406.28;5103471;27;20495;-54
2022/04/18 11:27:37;;;;;;;4.22;3.60;;;;;;;14.08;36.81;96404.66;5100983;27;20090;-53
2022/04/18 11:30:11;;;;;;;5.82;3.22;;;;;;;14.30;35.31;96389.03;5100181;27;20087;-56
2022/04/18 11:32:40;;;;;;;3.78;2.80;;;;;;;14.46;35.57;96389.81;5099005;28;20537;-53
2022/04/18 11:35:16;;;;;;;3.67;2.78;;;;;;;14.34;35.47;96387.69;5105982;27;20071;-56
2022/04/18 11:37:46;;;;;;;3.28;2.65;;;;;;;13.99;35.79;96390.56;5099834;27;20430;-55
2022/04/18 11:40:16;;;;;;;3.70;3.22;;;;;;;14.46;35.72;96392.47;5105477;27;20067;-58
2022/04/18 11:42:45;;;;;;;3.03;2.72;;;;;;;14.73;36.09;96382.47;5099966;28;20071;-58
2022/04/18 11:45:23;;;;;;;3.63;3.10;;;;;;;14.72;35.40;96384.28;5103062;28;21013;-58
2022/04/18 11:47:52;;;;;;;4.28;3.00;;;;;;;14.59;35.92;96375.22;5100383;28;20353;-59
2022/04/18 11:50:22;;;;;;;3.70;3.30;;;;;;;14.53;35.75;96370.59;5084025;28;20087;-55
2022/04/18 11:53:01;;;;;;;3.17;2.88;;;;;;;14.83;36.34;96372.47;5092708;27;20051;-57
2022/04/18 11:55:29;;;;;;;2.80;2.50;;;;;;;14.74;37.86;96373.50;5100831;28;20059;-57
2022/04/18 11:57:58;;;;;;;4.20;2.90;;;;;;;14.88;36.70;96367.47;5099504;27;20066;-56
2022/04/18 12:08:46;;;;;;;3.20;2.67;;;;;;;15.01;36.99;96356.28;5075901;28;20097;-56